Delta Virtual Airport Information Service

Montego Bay Sangster International Airport

ICAO: MKJS Country: Jamaica
Latitude: 18.5037 Longitude: -77.9133
Latest Arrival : SWA1115 (1) (KHOU-MKJS) Latest Departure : UAL1255 (1) (MKJS-KORD)


WX CaptureLIVE
Data provided by noaa.gov | Fetched at 15:51:38

METAR : MKJS 092000Z 07022G32KT 9999 FEW022 FEW024CB 32/27 Q1013

TAF : MKJS 091715Z 0918/1018 06025KT 9999 FEW022 PROB30 TEMPO 0919/0923 SHRA BKN020 FEW022CB BECMG 1004/1006 09008KT BECMG 1014/1016 06020KT


Runway Data for MKJS
Data provided by openaviationdata.com

Runway ID Mag Var Hdg Length Elevation Surface ILS Freq ILS Id ILS Slope
7 -5 70° 8738 ft 7 ft Asphalt 109.5 ISIA 3
25 -5 250° 8738 ft 7 ft Asphalt -- -- --

Montego Bay Sangster International Airport, Jamaica
Use only for reference purposes



Not for navigational purposes.